Time;durP1;ratioP1;P1;durP2;ratioP2;P2;SDS_P1;SDS_P2;PMS_P1;PMS_P2;Temp;Humidity;BMP_temperature;BMP_pressure;BME280_temperature;BME280_humidity;BME280_pressure;Samples;Min_cycle;Max_cycle;Signal;HPM_P1;HPM_P2
2023/11/27 10:49:32;;;;;;;2.13;1.87;;;;;;;3.93;100.00;97741.88;5185507;27;20552;-84
2023/11/27 10:52:02;;;;;;;6.07;2.50;;;;;;;4.57;100.00;97738.34;5133634;27;39897;-84
2023/11/27 10:54:31;;;;;;;2.57;1.60;;;;;;;5.16;100.00;97733.22;5150658;27;40519;-82
2023/11/27 10:57:03;;;;;;;2.73;1.50;;;;;;;5.62;100.00;97744.44;5133100;27;42987;-85
2023/11/27 10:59:32;;;;;;;3.43;1.53;;;;;;;6.01;99.27;97747.31;5133370;27;41222;-82
2023/11/27 11:02:04;;;;;;;4.30;1.93;;;;;;;6.29;96.18;97746.44;5132908;27;39018;-81
2023/11/27 11:04:51;;;;;;;2.10;1.70;;;;;;;6.28;93.57;97707.94;5150850;27;40793;-82
2023/11/27 11:07:22;;;;;;;2.03;1.47;;;;;;;6.64;91.17;97736.28;5132417;27;41884;-81
2023/11/27 11:09:50;;;;;;;4.33;1.67;;;;;;;6.69;90.30;97713.16;5150725;27;41118;-82
2023/11/27 11:12:23;;;;;;;4.87;1.80;;;;;;;6.93;88.92;97736.16;5150004;27;39334;-83
2023/11/27 11:14:53;;;;;;;4.63;1.80;;;;;;;7.04;87.79;97723.16;5150171;27;40965;-85
2023/11/27 11:17:34;;;;;;;1.73;1.47;;;;;;;6.98;85.98;97711.25;5132835;27;41994;-86
2023/11/27 11:20:14;;;;;;;3.47;2.03;;;;;;;7.06;86.08;97705.47;5132564;27;41054;-85
2023/11/27 11:22:52;;;;;;;2.20;1.70;;;;;;;7.17;85.60;97695.09;5149838;27;38878;-81
2023/11/27 11:25:28;;;;;;;3.43;1.60;;;;;;;7.22;84.08;97693.81;5132794;27;41732;-83
2023/11/27 11:28:05;;;;;;;1.50;1.40;;;;;;;7.31;84.24;97692.34;5149606;27;43166;-85
2023/11/27 11:30:34;;;;;;;3.70;1.63;;;;;;;7.25;83.20;97689.28;5149725;27;41137;-83
2023/11/27 11:33:05;;;;;;;4.10;1.67;;;;;;;7.22;84.28;97666.63;5149636;27;40129;-82
2023/11/27 11:35:36;;;;;;;2.57;1.40;;;;;;;7.36;84.53;97665.69;5147066;27;41966;-86
2023/11/27 11:38:16;;;;;;;2.73;1.57;;;;;;;7.47;84.88;97664.00;5183106;27;43835;-83
2023/11/27 11:40:48;;;;;;;2.83;1.33;;;;;;;7.49;83.79;97672.66;5132526;27;42087;-83
2023/11/27 11:43:17;;;;;;;4.10;1.53;;;;;;;7.40;83.74;97656.66;5148649;27;40002;-85
2023/11/27 11:45:45;;;;;;;3.10;1.67;;;;;;;7.27;83.46;97645.28;5132509;27;41680;-83
2023/11/27 11:48:15;;;;;;;2.80;1.40;;;;;;;7.24;84.03;97641.03;5148838;27;42914;-82
2023/11/27 11:50:46;;;;;;;3.93;1.60;;;;;;;7.19;84.26;97633.44;5132632;27;40869;-82
2023/11/27 11:53:37;;;;;;;3.03;1.40;;;;;;;7.25;83.76;97642.75;5149908;27;39862;-83
2023/11/27 11:56:19;;;;;;;1.63;1.53;;;;;;;7.13;84.71;97619.88;5146536;27;41890;-85
2023/11/27 11:58:50;;;;;;;2.60;1.53;;;;;;;7.01;83.99;97618.09;5146983;27;42914;-82
2023/11/27 12:01:18;;;;;;;2.60;1.70;;;;;;;7.04;84.63;97623.16;5118674;27;42399;-84
2023/11/27 12:03:46;;;;;;;2.37;1.50;;;;;;;6.91;85.43;97601.25;5118594;27;40221;-81
2023/11/27 12:06:15;;;;;;;1.93;1.40;;;;;;;6.95;85.40;97603.53;5118619;27;40779;-81
2023/11/27 12:08:45;;;;;;;2.77;1.77;;;;;;;6.84;85.69;97583.22;5118173;27;42110;-83
2023/11/27 12:11:14;;;;;;;3.93;1.30;;;;;;;6.77;85.92;97573.22;5118395;27;41461;-84
2023/11/27 12:13:44;;;;;;;1.67;1.50;;;;;;;6.72;86.17;97570.06;5118026;27;39239;-82
2023/11/27 12:16:12;;;;;;;4.60;1.67;;;;;;;6.70;86.50;97561.41;5135304;27;41579;-84
2023/11/27 12:18:43;;;;;;;1.60;1.50;;;;;;;6.76;87.19;97572.38;5118005;27;41768;-81
2023/11/27 12:21:12;;;;;;;4.23;1.67;;;;;;;6.72;86.79;97565.63;5118346;27;42452;-84
2023/11/27 12:23:43;;;;;;;4.03;2.03;;;;;;;6.65;87.08;97553.84;5135141;27;38802;-82
2023/11/27 12:26:16;;;;;;;3.47;2.10;;;;;;;6.64;87.32;97557.44;5134950;27;41932;-82
2023/11/27 12:28:46;;;;;;;2.37;1.80;;;;;;;6.36;86.98;97526.03;5134290;27;42763;-81
2023/11/27 12:31:16;;;;;;;2.07;1.50;;;;;;;6.48;87.84;97530.47;5118332;27;42110;-82
2023/11/27 12:33:44;;;;;;;2.00;1.73;;;;;;;6.44;87.90;97535.06;5117588;27;39269;-83
2023/11/27 12:36:14;;;;;;;3.00;1.70;;;;;;;6.40;88.34;97522.25;5169987;27;41717;-82
2023/11/27 12:38:43;;;;;;;2.77;2.07;;;;;;;6.33;88.70;97513.06;5117632;27;44313;-84
2023/11/27 15:13:59;;;;;;;2.90;2.20;;;;;;;0.76;100.00;97215.06;5109854;28;20552;-82
